Boise Air Terminal/Gowen field
KBOI : now visible

Airfield :











YOU CAN JOIN US ON...

 
LOGIN :

Register | Disclaimer

   EN    FR    IT 

 









Legend :    VFR   Marginal VFR   IFR   Intensive IFR   Very Intensive IFR
Visi :
Ceiling :
>= 8 km
>= 3000ft
5 to 8 km
1000 to 3000 ft
1500m to 5 km
500 to 1000 ft
800 to 1500m
200 to 500 ft
< 800m
< 200 ft
Symbols :   Thunderstorms  Fog  Heavy snow  Heavy precipitations  Wind > 20 kt






- Airport Elevation : 2871 ft
- IATA code : BOI


KBOI - Boise Air Terminal/Gowen field

CURRENT METAR :
  • 170053Z 31010KT 10SM CLR 22/M04 A2973 RMK AO2 SLP054 T02171039

EXPIRED METARs :
  • 162353Z 31011G17KT 10SM CLR 22/M05 A2976 RMK AO2 SLP063 T02221050 10222 20161 56035
  • 162253Z 30011G17KT 10SM CLR 21/M06 A2980 RMK AO2 SLP076 T02111061
  • 162153Z 02008KT 350V060 10SM CLR 22/M06 A2983 RMK AO2 SLP085 T02171061
  • 162053Z VRB03KT 10SM CLR 20/M06 A2987 RMK AO2 SLP101 T02001056 58033

TAF KBOI
Valid from the 17 at 00:00 until the 18 at 00:00 UTC


162339Z 1700/1724 33008KT P6SM SCT200
FM170500 32012G20KT P6SM BKN100
FM170800 31012G20KT P6SM VCSH OVC050
FM171400 32015G25KT P6SM VCSH OVC035
PROB30 1714/1718 -SHRA OVC025
FM171900 32015G25KT P6SM SCT070
KZLC FIR / North America



MET'MAP, your aeronautical weather chart ! - Copyright ORBIFLY December 2007 - Disclaimer

ORBIFLY MET'MAP TEAM :

Programming & Development : Alexandra Zaïnal
Original concept : Baudouin d'Aumeries
Technical & hardware support : Manuel Goepfert
Assistance : Marc-Olivier Méhu




SOURCES & CREDITS :

   NOAA       Earth
Advisory